Temp: 17.4°C   Baro: 1010.1mb
  Wind: 6.9mph   Dir: WNW (287°)
  Rain: 0.8mm (0.0mm/hr)
  Solar: 158W/m2  Hum: 92%
 
Bath Spa Weather Station Historical Data
Daily Summary for June 8, 2019 Units:  Both    English   Metric
Daily Weekly Monthly Yearly Custom
  High: Low: Average:
Temperature: 73.9 °F /  23.3 °C 54.2 °F /  12.3 °C 63.5 °F /  17.5 °C
Dew Point: 58.5 °F /  14.7 °C 47.9 °F /  8.8 °C 54.2 °F /  12.3 °C
Humidity: 92% 53.6% 73%
Wind Speed: 9.5mph /  15.3km/h - 1.5mph /  2.4km/h
Wind Gust: 13mph /  20.9km/h - -
Wind- - West
Pressure: 30.14 in /  1020.5 hPa 30.07 in /  1018.2 hPa -
Precipitation: 0.00 in /  0 mm    
Historical Graphs
 
 
Tabular Data for June 8, 2019
Time Temperature Dew Point Pressure Wind Wind Speed Wind Gust Humidity Rainfall Rate (Hourly) solar
00:04 58.3 °F /  14.6 °C 52.4 °F /  11.3 °C 30.07in /  1018.2hPa West 1.3mph /  2.1km/h 3mph /  4.8km/h 80.8% 0.00in /  0mm 0 W/m2
00:09 57.8 °F /  14.3 °C 52.1 °F /  11.2 °C 30.07in /  1018.2hPa West 0.9mph /  1.4km/h 3mph /  4.8km/h 81.1% 0.00in /  0mm 0 W/m2
00:14 57.6 °F /  14.2 °C 52.2 °F /  11.2 °C 30.07in /  1018.2hPa Calm   1mph /  1.6km/h 81.9% 0.00in /  0mm 0 W/m2
00:19 57.6 °F /  14.2 °C 52.2 °F /  11.2 °C 30.07in /  1018.2hPa Calm     82% 0.00in /  0mm 0 W/m2
00:24 57.4 °F /  14.1 °C 52 °F /  11.1 °C 30.07in /  1018.2hPa Calm     82% 0.00in /  0mm 0 W/m2
00:29 57.1 °F /  13.9 °C 51.9 °F /  11.1 °C 30.08in /  1018.5hPa Calm     82.4% 0.00in /  0mm 0 W/m2
00:34 56.9 °F /  13.8 °C 51.9 °F /  11.1 °C 30.08in /  1018.5hPa Calm     83% 0.00in /  0mm 0 W/m2
00:39 56.8 °F /  13.8 °C 51.7 °F /  10.9 °C 30.08in /  1018.5hPa West 0.2mph /  0.3km/h 2mph /  3.2km/h 83% 0.00in /  0mm 0 W/m2
00:44 56.7 °F /  13.7 °C 51.8 °F /  11 °C 30.08in /  1018.5hPa West 0.2mph /  0.3km/h 2mph /  3.2km/h 83.9% 0.00in /  0mm 0 W/m2
00:49 56.7 °F /  13.7 °C 51.8 °F /  11 °C 30.08in /  1018.5hPa Calm     84% 0.00in /  0mm 0 W/m2
00:54 56.7 °F /  13.7 °C 51.8 °F /  11 °C 30.08in /  1018.5hPa Calm     84% 0.00in /  0mm 0 W/m2
00:59 56.4 °F /  13.6 °C 51.5 °F /  10.8 °C 30.08in /  1018.5hPa Calm     84% 0.00in /  0mm 0 W/m2
01:04 56.3 °F /  13.5 °C 51.4 °F /  10.8 °C 30.08in /  1018.5hPa Calm     84% 0.00in /  0mm 0 W/m2
01:09 56.1 °F /  13.4 °C 51.4 °F /  10.8 °C 30.09in /  1018.8hPa West 0.4mph /  0.6km/h 2mph /  3.2km/h 84% 0.00in /  0mm 0 W/m2
01:14 56.1 °F /  13.4 °C 51.6 °F /  10.9 °C 30.09in /  1018.8hPa Calm     85% 0.00in /  0mm 0 W/m2
01:19 56.2 °F /  13.4 °C 51.7 °F /  10.9 °C 30.08in /  1018.5hPa Calm     85% 0.00in /  0mm 0 W/m2
01:24 56.3 °F /  13.5 °C 51.8 °F /  11 °C 30.08in /  1018.5hPa Calm     85% 0.00in /  0mm 0 W/m2
01:29 56.2 °F /  13.4 °C 51.7 °F /  10.9 °C 30.08in /  1018.5hPa Calm     85% 0.00in /  0mm 0 W/m2
01:34 56.1 °F /  13.4 °C 51.6 °F /  10.9 °C 30.08in /  1018.5hPa Calm     85% 0.00in /  0mm 0 W/m2
01:39 55.9 °F /  13.3 °C 51.4 °F /  10.8 °C 30.08in /  1018.5hPa Calm     85% 0.00in /  0mm 0 W/m2
01:44 55.9 °F /  13.3 °C 51.4 °F /  10.8 °C 30.08in /  1018.5hPa Calm     85% 0.00in /  0mm 0 W/m2
01:49 55.9 °F /  13.3 °C 51.4 °F /  10.8 °C 30.08in /  1018.5hPa Calm     85% 0.00in /  0mm 0 W/m2
01:54 55.8 °F /  13.2 °C 51.3 °F /  10.7 °C 30.08in /  1018.5hPa Calm     85% 0.00in /  0mm 0 W/m2
01:59 55.8 °F /  13.2 °C 51.5 °F /  10.8 °C 30.08in /  1018.5hPa Calm     85.8% 0.00in /  0mm 0 W/m2
02:04 55.8 °F /  13.2 °C 51.6 °F /  10.9 °C 30.08in /  1018.5hPa Calm     86% 0.00in /  0mm 0 W/m2
02:09 55.6 °F /  13.1 °C 51.4 °F /  10.8 °C 30.08in /  1018.5hPa Calm     86% 0.00in /  0mm 0 W/m2
02:14 55.4 °F /  13 °C 51.3 °F /  10.7 °C 30.08in /  1018.5hPa Calm     86% 0.00in /  0mm 0 W/m2
02:19 55.4 °F /  13 °C 50.9 °F /  10.5 °C 30.08in /  1018.5hPa Calm     85.1% 0.00in /  0mm 0 W/m2
02:24 55.2 °F /  12.9 °C 51 °F /  10.6 °C 30.08in /  1018.5hPa Calm     85.9% 0.00in /  0mm 0 W/m2
02:29 55.2 °F /  12.9 °C 51.1 °F /  10.6 °C 30.08in /  1018.5hPa Calm     86% 0.00in /  0mm 0 W/m2
02:34 55 °F /  12.8 °C 50.9 °F /  10.5 °C 30.08in /  1018.5hPa Calm     86% 0.00in /  0mm 0 W/m2
02:39 55 °F /  12.8 °C 50.9 °F /  10.5 °C 30.08in /  1018.5hPa Calm     86% 0.00in /  0mm 0 W/m2
02:44 54.9 °F /  12.7 °C 50.8 °F /  10.4 °C 30.08in /  1018.5hPa Calm     86% 0.00in /  0mm 0 W/m2
02:49 54.9 °F /  12.7 °C 50.7 °F /  10.4 °C 30.09in /  1018.8hPa Calm     86% 0.00in /  0mm 0 W/m2
02:54 54.8 °F /  12.7 °C 50.6 °F /  10.3 °C 30.09in /  1018.8hPa Calm     86% 0.00in /  0mm 0 W/m2
02:59 54.6 °F /  12.6 °C 50.4 °F /  10.2 °C 30.09in /  1018.8hPa Calm     86% 0.00in /  0mm 0 W/m2
03:04 54.5 °F /  12.5 °C 50.4 °F /  10.2 °C 30.09in /  1018.8hPa Calm     86% 0.00in /  0mm 0 W/m2
03:09 54.5 °F /  12.5 °C 50.4 °F /  10.2 °C 30.09in /  1018.8hPa Calm     86% 0.00in /  0mm 0 W/m2
03:14 54.4 °F /  12.4 °C 50.5 °F /  10.3 °C 30.09in /  1018.8hPa Calm     86.4% 0.00in /  0mm 0 W/m2
03:19 54.5 °F /  12.5 °C 50.7 °F /  10.4 °C 30.09in /  1018.8hPa Calm     87% 0.00in /  0mm 0 W/m2
03:24 54.4 °F /  12.4 °C 50.6 °F /  10.3 °C 30.09in /  1018.8hPa Calm     87% 0.00in /  0mm 0 W/m2
03:29 54.5 °F /  12.5 °C 50.7 °F /  10.4 °C 30.09in /  1018.8hPa Calm     87% 0.00in /  0mm 0 W/m2
03:34 54.5 °F /  12.5 °C 50.7 °F /  10.4 °C 30.09in /  1018.8hPa Calm     87% 0.00in /  0mm 0 W/m2
03:39 54.8 °F /  12.7 °C 51.3 °F /  10.7 °C 30.09in /  1018.8hPa Calm     87.8% 0.00in /  0mm 0 W/m2
03:44 54.8 °F /  12.7 °C 51.4 °F /  10.8 °C 30.09in /  1018.8hPa Calm     88% 0.00in /  0mm 0 W/m2
03:49 54.6 °F /  12.6 °C 51.2 °F /  10.7 °C 30.09in /  1018.8hPa Calm     88% 0.00in /  0mm 0 W/m2
03:54 54.5 °F /  12.5 °C 51.1 °F /  10.6 °C 30.09in /  1018.8hPa Calm     88% 0.00in /  0mm 0 W/m2
03:59 54.4 °F /  12.4 °C 51 °F /  10.6 °C 30.09in /  1018.8hPa Calm     88% 0.00in /  0mm 0 W/m2
04:04 54.3 °F /  12.4 °C 50.9 °F /  10.5 °C 30.09in /  1018.8hPa Calm     88% 0.00in /  0mm 0 W/m2
04:09 54.3 °F /  12.4 °C 50.9 °F /  10.5 °C 30.09in /  1018.8hPa Calm     88% 0.00in /  0mm 0 W/m2
04:14 54.2 °F /  12.3 °C 51 °F /  10.6 °C 30.09in /  1018.8hPa Calm     88.9% 0.00in /  0mm 0 W/m2
04:19 54.3 °F /  12.4 °C 51.1 °F /  10.6 °C 30.10in /  1019.2hPa Calm     89% 0.00in /  0mm 0 W/m2
04:24 54.3 °F /  12.4 °C 51.1 °F /  10.6 °C 30.10in /  1019.2hPa Calm     89% 0.00in /  0mm 0 W/m2
04:29 54.3 °F /  12.4 °C 51.1 °F /  10.6 °C 30.10in /  1019.2hPa Calm     89% 0.00in /  0mm 0 W/m2
04:34 54.5 °F /  12.5 °C 51.4 °F /  10.8 °C 30.10in /  1019.2hPa Calm     89.6% 0.00in /  0mm 0 W/m2
04:39 54.5 °F /  12.5 °C 51.6 °F /  10.9 °C 30.10in /  1019.2hPa Calm     90% 0.00in /  0mm 0 W/m2
04:44 54.7 °F /  12.6 °C 51.8 °F /  11 °C 30.10in /  1019.2hPa Calm     90% 0.00in /  0mm 0 W/m2
04:49 54.7 °F /  12.6 °C 51.8 °F /  11 °C 30.11in /  1019.5hPa Calm     90% 0.00in /  0mm 0 W/m2
04:54 54.8 °F /  12.7 °C 52 °F /  11.1 °C 30.11in /  1019.5hPa Calm     90.3% 0.00in /  0mm 0 W/m2
04:59 54.9 °F /  12.7 °C 52.2 °F /  11.2 °C 30.11in /  1019.5hPa Calm     90.7% 0.00in /  0mm 0 W/m2
05:04 55 °F /  12.8 °C 52.4 °F /  11.3 °C 30.11in /  1019.5hPa Calm     91% 0.00in /  0mm 0 W/m2
05:09 55 °F /  12.8 °C 52.5 °F /  11.4 °C 30.11in /  1019.5hPa Calm     91% 0.00in /  0mm 0 W/m2
05:14 55.2 °F /  12.9 °C 52.7 °F /  11.5 °C 30.11in /  1019.5hPa Calm     91% 0.00in /  0mm 0 W/m2
05:19 55.3 °F /  12.9 °C 52.8 °F /  11.6 °C 30.11in /  1019.5hPa Calm     91% 0.00in /  0mm 0 W/m2
05:24 55.4 °F /  13 °C 52.9 °F /  11.6 °C 30.11in /  1019.5hPa Calm     91% 0.00in /  0mm 5 W/m2
05:29 55.4 °F /  13 °C 52.9 °F /  11.6 °C 30.11in /  1019.5hPa Calm     91% 0.00in /  0mm 5 W/m2
05:34 55.4 °F /  13 °C 53 °F /  11.7 °C 30.11in /  1019.5hPa Calm     91.3% 0.00in /  0mm 5 W/m2
05:39 55.6 °F /  13.1 °C 53.2 °F /  11.8 °C 30.11in /  1019.5hPa Calm     92% 0.00in /  0mm 9 W/m2
05:44 55.8 °F /  13.2 °C 53.4 °F /  11.9 °C 30.11in /  1019.5hPa Calm     92% 0.00in /  0mm 16 W/m2
05:49 55.8 °F /  13.2 °C 53.4 °F /  11.9 °C 30.11in /  1019.5hPa Calm     92% 0.00in /  0mm 21 W/m2
05:54 55.8 °F /  13.2 °C 53.4 °F /  11.9 °C 30.11in /  1019.5hPa Calm     92% 0.00in /  0mm 25 W/m2
05:59 55.8 °F /  13.2 °C 53.4 °F /  11.9 °C 30.12in /  1019.9hPa Calm     92% 0.00in /  0mm 25 W/m2
06:04 55.8 °F /  13.2 °C 53.4 °F /  11.9 °C 30.12in /  1019.9hPa Calm     92% 0.00in /  0mm 25 W/m2
06:09 55.9 °F /  13.3 °C 53.6 °F /  12 °C 30.12in /  1019.9hPa Calm     92% 0.00in /  0mm 19 W/m2
06:14 55.9 °F /  13.3 °C 53.6 °F /  12 °C 30.12in /  1019.9hPa Calm     92% 0.00in /  0mm 21 W/m2
06:19 55.9 °F /  13.3 °C 53.6 °F /  12 °C 30.12in /  1019.9hPa Calm     92% 0.00in /  0mm 23 W/m2
06:24 55.9 °F /  13.3 °C 53.6 °F /  12 °C 30.12in /  1019.9hPa Calm     92% 0.00in /  0mm 25 W/m2
06:29 55.9 °F /  13.3 °C 53.6 °F /  12 °C 30.12in /  1019.9hPa Calm     92% 0.00in /  0mm 25 W/m2
06:34 55.9 °F /  13.3 °C 53.6 °F /  12 °C 30.12in /  1019.9hPa SW 1.3mph /  2.1km/h 6mph /  9.7km/h 92% 0.00in /  0mm 26 W/m2
06:39 55.9 °F /  13.3 °C 53.6 °F /  12 °C 30.12in /  1019.9hPa SW 0.8mph /  1.3km/h 6mph /  9.7km/h 92% 0.00in /  0mm 26 W/m2
06:44 55.8 °F /  13.2 °C 53.5 °F /  11.9 °C 30.12in /  1019.9hPa SW 0.6mph /  1km/h 3mph /  4.8km/h 92% 0.00in /  0mm 33 W/m2
06:49 55.8 °F /  13.2 °C 53.5 °F /  11.9 °C 30.12in /  1019.9hPa SW 1.3mph /  2.1km/h 3mph /  4.8km/h 92% 0.00in /  0mm 40 W/m2
06:54 55.8 °F /  13.2 °C 53.4 °F /  11.9 °C 30.12in /  1019.9hPa SW 1mph /  1.6km/h 4mph /  6.4km/h 92% 0.00in /  0mm 53 W/m2
06:59 55.9 °F /  13.3 °C 53.6 °F /  12 °C 30.12in /  1019.9hPa SW 0.2mph /  0.3km/h 4mph /  6.4km/h 92% 0.00in /  0mm 62 W/m2
07:04 55.9 °F /  13.3 °C 53.6 °F /  12 °C 30.12in /  1019.9hPa SW 0.3mph /  0.5km/h 2mph /  3.2km/h 92% 0.00in /  0mm 69 W/m2
07:09 56 °F /  13.3 °C 53.7 °F /  12.1 °C 30.12in /  1019.9hPa Calm   2mph /  3.2km/h 92% 0.00in /  0mm 95 W/m2
07:14 56.2 °F /  13.4 °C 53.9 °F /  12.2 °C 30.12in /  1019.9hPa SW 0.1mph /  0.2km/h 2mph /  3.2km/h 92% 0.00in /  0mm 91 W/m2
07:19 56.3 °F /  13.5 °C 54 °F /  12.2 °C 30.12in /  1019.9hPa Calm   1mph /  1.6km/h 92% 0.00in /  0mm 105 W/m2
07:24 56.6 °F /  13.7 °C 54.2 °F /  12.3 °C 30.12in /  1019.9hPa Calm   1mph /  1.6km/h 92% 0.00in /  0mm 120 W/m2
07:29 56.8 °F /  13.8 °C 54.5 °F /  12.5 °C 30.12in /  1019.9hPa Calm   1mph /  1.6km/h 92% 0.00in /  0mm 190 W/m2
07:34 56.8 °F /  13.8 °C 54.5 °F /  12.5 °C 30.12in /  1019.9hPa Calm   1mph /  1.6km/h 92% 0.00in /  0mm 199 W/m2
07:39 57 °F /  13.9 °C 54.7 °F /  12.6 °C 30.12in /  1019.9hPa Calm   1mph /  1.6km/h 92% 0.00in /  0mm 239 W/m2
07:44 57.2 °F /  14 °C 54.8 °F /  12.7 °C 30.12in /  1019.9hPa SW 0.2mph /  0.3km/h 2mph /  3.2km/h 92% 0.00in /  0mm 255 W/m2
07:49 57.6 °F /  14.2 °C 55.1 °F /  12.8 °C 30.12in /  1019.9hPa SW 0.5mph /  0.8km/h 3mph /  4.8km/h 91.4% 0.00in /  0mm 287 W/m2
07:54 58 °F /  14.4 °C 55.4 °F /  13 °C 30.12in /  1019.9hPa SW 0.5mph /  0.8km/h 3mph /  4.8km/h 91.3% 0.00in /  0mm 285 W/m2
07:59 58.4 °F /  14.7 °C 55.7 °F /  13.2 °C 30.12in /  1019.9hPa SW 1mph /  1.6km/h 4mph /  6.4km/h 91% 0.00in /  0mm 276 W/m2
08:04 58.8 °F /  14.9 °C 55.9 °F /  13.3 °C 30.12in /  1019.9hPa West 3.9mph /  6.3km/h 8mph /  12.9km/h 90.1% 0.00in /  0mm 278 W/m2
08:09 59.2 °F /  15.1 °C 56 °F /  13.3 °C 30.13in /  1020.2hPa WNW 2.8mph /  4.5km/h 8mph /  12.9km/h 89.3% 0.00in /  0mm 274 W/m2
08:14 59.4 °F /  15.2 °C 55.8 °F /  13.2 °C 30.13in /  1020.2hPa West 4mph /  6.4km/h 8mph /  12.9km/h 87.9% 0.00in /  0mm 336 W/m2
08:19 59.5 °F /  15.3 °C 55.6 °F /  13.1 °C 30.13in /  1020.2hPa West 3.4mph /  5.5km/h 7mph /  11.3km/h 87% 0.00in /  0mm 339 W/m2
08:24 59.9 °F /  15.5 °C 55.8 °F /  13.2 °C 30.13in /  1020.2hPa West 1.5mph /  2.4km/h 6mph /  9.7km/h 86% 0.00in /  0mm 360 W/m2
08:29 60.4 °F /  15.8 °C 56.1 °F /  13.4 °C 30.13in /  1020.2hPa West 1.1mph /  1.8km/h 5mph /  8km/h 85.4% 0.00in /  0mm 341 W/m2
08:34 60.9 °F /  16.1 °C 56 °F /  13.3 °C 30.13in /  1020.2hPa West 3.2mph /  5.1km/h 7mph /  11.3km/h 83.9% 0.00in /  0mm 253 W/m2
08:39 60.8 °F /  16 °C 55.4 °F /  13 °C 30.13in /  1020.2hPa West 3.5mph /  5.6km/h 8mph /  12.9km/h 82.7% 0.00in /  0mm 306 W/m2
08:44 60.7 °F /  15.9 °C 55.2 °F /  12.9 °C 30.13in /  1020.2hPa West 3mph /  4.8km/h 5mph /  8km/h 82.2% 0.00in /  0mm 360 W/m2
08:49 61.1 °F /  16.2 °C 55.4 °F /  13 °C 30.13in /  1020.2hPa West 2.1mph /  3.4km/h 5mph /  8km/h 81.9% 0.00in /  0mm 360 W/m2
08:54 61.2 °F /  16.2 °C 55.2 °F /  12.9 °C 30.13in /  1020.2hPa West 1.1mph /  1.8km/h 5mph /  8km/h 81% 0.00in /  0mm 283 W/m2
08:59 61.4 °F /  16.3 °C 55.6 °F /  13.1 °C 30.13in /  1020.2hPa West 0.1mph /  0.2km/h 2mph /  3.2km/h 81.3% 0.00in /  0mm 371 W/m2
09:04 62 °F /  16.7 °C 56 °F /  13.3 °C 30.13in /  1020.2hPa West 1.3mph /  2.1km/h 4mph /  6.4km/h 80.8% 0.00in /  0mm 434 W/m2
09:09 62.1 °F /  16.7 °C 55.8 °F /  13.2 °C 30.13in /  1020.2hPa West 2mph /  3.2km/h 5mph /  8km/h 80% 0.00in /  0mm 306 W/m2
09:14 62.2 °F /  16.8 °C 55.7 °F /  13.2 °C 30.13in /  1020.2hPa West 1.5mph /  2.4km/h 5mph /  8km/h 79.7% 0.00in /  0mm 432 W/m2
09:19 62.3 °F /  16.8 °C 55.9 °F /  13.3 °C 30.14in /  1020.5hPa West 2mph /  3.2km/h 5mph /  8km/h 79.7% 0.00in /  0mm 524 W/m2
09:24 62.2 °F /  16.8 °C 55.6 °F /  13.1 °C 30.14in /  1020.5hPa West 2.4mph /  3.9km/h 5mph /  8km/h 79% 0.00in /  0mm 325 W/m2
09:29 62.2 °F /  16.8 °C 55.8 °F /  13.2 °C 30.14in /  1020.5hPa West 0.7mph /  1.1km/h 3mph /  4.8km/h 79.7% 0.00in /  0mm 564 W/m2
09:34 63 °F /  17.2 °C 56.3 °F /  13.5 °C 30.14in /  1020.5hPa Calm   5mph /  8km/h 78.9% 0.00in /  0mm 309 W/m2
09:39 63.9 °F /  17.7 °C 56.5 °F /  13.6 °C 30.14in /  1020.5hPa West 0.4mph /  0.6km/h 3mph /  4.8km/h 76.9% 0.00in /  0mm 325 W/m2
09:44 63.9 °F /  17.7 °C 56.3 °F /  13.5 °C 30.14in /  1020.5hPa West 2.2mph /  3.5km/h 6mph /  9.7km/h 76.3% 0.00in /  0mm 262 W/m2
09:49 63.3 °F /  17.4 °C 55.6 °F /  13.1 °C 30.14in /  1020.5hPa West 1mph /  1.6km/h 6mph /  9.7km/h 76% 0.00in /  0mm 311 W/m2
09:54 63.1 °F /  17.3 °C 55.7 °F /  13.2 °C 30.14in /  1020.5hPa West 1.3mph /  2.1km/h 4mph /  6.4km/h 77% 0.00in /  0mm 311 W/m2
09:59 63.4 °F /  17.4 °C 56 °F /  13.3 °C 30.14in /  1020.5hPa West 0.6mph /  1km/h 4mph /  6.4km/h 77% 0.00in /  0mm 629 W/m2
10:04 64.2 °F /  17.9 °C 56.5 °F /  13.6 °C 30.13in /  1020.2hPa West 0.3mph /  0.5km/h 3mph /  4.8km/h 76.1% 0.00in /  0mm 631 W/m2
10:09 64.7 °F /  18.2 °C 56.5 °F /  13.6 °C 30.13in /  1020.2hPa West 0.2mph /  0.3km/h 2mph /  3.2km/h 74.8% 0.00in /  0mm 631 W/m2
10:14 64.9 °F /  18.3 °C 56.4 °F /  13.6 °C 30.13in /  1020.2hPa West 1mph /  1.6km/h 3mph /  4.8km/h 74% 0.00in /  0mm 281 W/m2
10:19 64.4 °F /  18 °C 55.9 °F /  13.3 °C 30.13in /  1020.2hPa West 0.4mph /  0.6km/h 3mph /  4.8km/h 74% 0.00in /  0mm 227 W/m2
10:24 64.4 °F /  18 °C 55.9 °F /  13.3 °C 30.13in /  1020.2hPa West 0.8mph /  1.3km/h 3mph /  4.8km/h 74% 0.00in /  0mm 237 W/m2
10:29 64.4 °F /  18 °C 55.9 °F /  13.3 °C 30.13in /  1020.2hPa West 0.4mph /  0.6km/h 2mph /  3.2km/h 74% 0.00in /  0mm 292 W/m2
10:34 64.5 °F /  18.1 °C 56 °F /  13.3 °C 30.13in /  1020.2hPa West 1.6mph /  2.6km/h 5mph /  8km/h 74% 0.00in /  0mm 229 W/m2
10:39 64.7 °F /  18.2 °C 56.2 °F /  13.4 °C 30.13in /  1020.2hPa West 0.5mph /  0.8km/h 3mph /  4.8km/h 73.9% 0.00in /  0mm 297 W/m2
10:44 65.1 °F /  18.4 °C 55.9 °F /  13.3 °C 30.13in /  1020.2hPa West 0.4mph /  0.6km/h 3mph /  4.8km/h 72.1% 0.00in /  0mm 330 W/m2
10:49 65.5 °F /  18.6 °C 56.3 °F /  13.5 °C 30.13in /  1020.2hPa West 0.4mph /  0.6km/h 2mph /  3.2km/h 71.9% 0.00in /  0mm 390 W/m2
10:54 66.1 °F /  18.9 °C 56.3 °F /  13.5 °C 30.13in /  1020.2hPa West 2.4mph /  3.9km/h 5mph /  8km/h 70.6% 0.00in /  0mm 297 W/m2
10:59 65.8 °F /  18.8 °C 55.9 °F /  13.3 °C 30.13in /  1020.2hPa West 2.2mph /  3.5km/h 6mph /  9.7km/h 70.3% 0.00in /  0mm 278 W/m2
11:04 66 °F /  18.9 °C 56 °F /  13.3 °C 30.13in /  1020.2hPa West 0.2mph /  0.3km/h 3mph /  4.8km/h 70% 0.00in /  0mm 816 W/m2
11:09 66.7 °F /  19.3 °C 55.9 °F /  13.3 °C 30.13in /  1020.2hPa Calm   1mph /  1.6km/h 68.4% 0.00in /  0mm 830 W/m2
11:14 66.5 °F /  19.2 °C 55.3 °F /  12.9 °C 30.13in /  1020.2hPa West 2mph /  3.2km/h 5mph /  8km/h 67.5% 0.00in /  0mm 795 W/m2
11:19 66.1 °F /  18.9 °C 55.1 °F /  12.8 °C 30.13in /  1020.2hPa SSW 2.4mph /  3.9km/h 7mph /  11.3km/h 67.6% 0.00in /  0mm 789 W/m2
11:24 67 °F /  19.4 °C 55.3 °F /  12.9 °C 30.13in /  1020.2hPa SSW 1.2mph /  1.9km/h 6mph /  9.7km/h 66.1% 0.00in /  0mm 274 W/m2
11:29 66.9 °F /  19.4 °C 55.7 °F /  13.2 °C 30.13in /  1020.2hPa West 2.9mph /  4.7km/h 7mph /  11.3km/h 67.3% 0.00in /  0mm 279 W/m2
11:34 66.6 °F /  19.2 °C 55.7 °F /  13.2 °C 30.13in /  1020.2hPa West 2.8mph /  4.5km/h 9mph /  14.5km/h 68% 0.00in /  0mm 244 W/m2
11:39 66.5 °F /  19.2 °C 55.6 °F /  13.1 °C 30.13in /  1020.2hPa West 1.5mph /  2.4km/h 4mph /  6.4km/h 68% 0.00in /  0mm 232 W/m2
11:44 66.6 °F /  19.2 °C 55.6 °F /  13.1 °C 30.13in /  1020.2hPa West 3.8mph /  6.1km/h 10mph /  16.1km/h 68% 0.00in /  0mm 206 W/m2
11:49 66.4 °F /  19.1 °C 55.1 °F /  12.8 °C 30.13in /  1020.2hPa West 3.2mph /  5.1km/h 7mph /  11.3km/h 67% 0.00in /  0mm 202 W/m2
11:54 66.4 °F /  19.1 °C 55 °F /  12.8 °C 30.13in /  1020.2hPa West 2.3mph /  3.7km/h 7mph /  11.3km/h 67% 0.00in /  0mm 229 W/m2
11:59 66.6 °F /  19.2 °C 55.2 °F /  12.9 °C 30.13in /  1020.2hPa West 2.6mph /  4.2km/h 6mph /  9.7km/h 66.9% 0.00in /  0mm 260 W/m2
12:04 66.8 °F /  19.3 °C 55 °F /  12.8 °C 30.13in /  1020.2hPa SW 1.7mph /  2.7km/h 6mph /  9.7km/h 65.8% 0.00in /  0mm 341 W/m2
12:09 67.1 °F /  19.5 °C 54.8 °F /  12.7 °C 30.14in /  1020.5hPa SW 2.7mph /  4.3km/h 7mph /  11.3km/h 64.7% 0.00in /  0mm 902 W/m2
12:14 68 °F /  20 °C 55.2 °F /  12.9 °C 30.14in /  1020.5hPa WSW 3.8mph /  6.1km/h 8mph /  12.9km/h 63.7% 0.00in /  0mm 914 W/m2
12:19 68.4 °F /  20.2 °C 56.9 °F /  13.8 °C 30.13in /  1020.2hPa WSW 2.8mph /  4.5km/h 8mph /  12.9km/h 66.6% 0.00in /  0mm 882 W/m2
12:24 69.3 °F /  20.7 °C 57.6 °F /  14.2 °C 30.14in /  1020.5hPa WSW 3.8mph /  6.1km/h 8mph /  12.9km/h 66.4% 0.00in /  0mm 861 W/m2
12:29 69.4 °F /  20.8 °C 57.4 °F /  14.1 °C 30.13in /  1020.2hPa SW 3.2mph /  5.1km/h 9mph /  14.5km/h 65.7% 0.00in /  0mm 870 W/m2
12:34 69.6 °F /  20.9 °C 57.1 °F /  13.9 °C 30.13in /  1020.2hPa WSW 5.3mph /  8.5km/h 10mph /  16.1km/h 64.6% 0.00in /  0mm 882 W/m2
12:39 69.7 °F /  20.9 °C 57.3 °F /  14.1 °C 30.13in /  1020.2hPa West 2.1mph /  3.4km/h 8mph /  12.9km/h 64.7% 0.00in /  0mm 868 W/m2
12:44 70.4 °F /  21.3 °C 57.4 °F /  14.1 °C 30.13in /  1020.2hPa SW 3.8mph /  6.1km/h 7mph /  11.3km/h 63.5% 0.00in /  0mm 911 W/m2
12:49 70 °F /  21.1 °C 57.1 °F /  13.9 °C 30.13in /  1020.2hPa SW 4mph /  6.4km/h 8mph /  12.9km/h 63.5% 0.00in /  0mm 911 W/m2
12:54 70.3 °F /  21.3 °C 57.1 °F /  13.9 °C 30.13in /  1020.2hPa WSW 4mph /  6.4km/h 9mph /  14.5km/h 62.9% 0.00in /  0mm 882 W/m2
12:59 70.4 °F /  21.3 °C 57.5 °F /  14.2 °C 30.13in /  1020.2hPa West 2.2mph /  3.5km/h 7mph /  11.3km/h 63.9% 0.00in /  0mm 925 W/m2
13:04 71.5 °F /  21.9 °C 57.5 °F /  14.2 °C 30.12in /  1019.9hPa SSW 2.8mph /  4.5km/h 7mph /  11.3km/h 61.4% 0.00in /  0mm 912 W/m2
13:09 71.7 °F /  22.1 °C 57.3 °F /  14.1 °C 30.12in /  1019.9hPa SW 2.3mph /  3.7km/h 7mph /  11.3km/h 60.4% 0.00in /  0mm 905 W/m2
13:14 72 °F /  22.2 °C 56.5 °F /  13.6 °C 30.12in /  1019.9hPa SW 3.7mph /  6km/h 9mph /  14.5km/h 58.1% 0.00in /  0mm 900 W/m2
13:19 71.8 °F /  22.1 °C 56.5 °F /  13.6 °C 30.12in /  1019.9hPa WSW 4.9mph /  7.9km/h 10mph /  16.1km/h 58.6% 0.00in /  0mm 905 W/m2
13:24 71.9 °F /  22.2 °C 56 °F /  13.3 °C 30.12in /  1019.9hPa SW 4.8mph /  7.7km/h 9mph /  14.5km/h 57.6% 0.00in /  0mm 854 W/m2
13:29 71.4 °F /  21.9 °C 56.2 °F /  13.4 °C 30.12in /  1019.9hPa West 3.3mph /  5.3km/h 9mph /  14.5km/h 58.6% 0.00in /  0mm 865 W/m2
13:34 72.2 °F /  22.3 °C 56.4 °F /  13.6 °C 30.12in /  1019.9hPa West 4.5mph /  7.2km/h 10mph /  16.1km/h 57.5% 0.00in /  0mm 863 W/m2
13:39 71.9 °F /  22.2 °C 55.8 °F /  13.2 °C 30.12in /  1019.9hPa WSW 5.1mph /  8.2km/h 10mph /  16.1km/h 56.8% 0.00in /  0mm 888 W/m2
13:44 71.8 °F /  22.1 °C 56.4 °F /  13.6 °C 30.12in /  1019.9hPa WSW 4.6mph /  7.4km/h 9mph /  14.5km/h 58.3% 0.00in /  0mm 868 W/m2
13:49 72.5 °F /  22.5 °C 56.9 °F /  13.8 °C 30.11in /  1019.5hPa WSW 3.3mph /  5.3km/h 8mph /  12.9km/h 58.2% 0.00in /  0mm 895 W/m2
13:54 72.3 °F /  22.4 °C 56.8 °F /  13.8 °C 30.11in /  1019.5hPa WSW 4.3mph /  6.9km/h 9mph /  14.5km/h 58.2% 0.00in /  0mm 921 W/m2
13:59 71.9 °F /  22.2 °C 56 °F /  13.3 °C 30.12in /  1019.9hPa SW 4.6mph /  7.4km/h 8mph /  12.9km/h 57.3% 0.00in /  0mm 911 W/m2
14:04 71.9 °F /  22.2 °C 56.3 °F /  13.5 °C 30.12in /  1019.9hPa SSW 3.9mph /  6.3km/h 7mph /  11.3km/h 58.1% 0.00in /  0mm 884 W/m2
14:09 72.7 °F /  22.6 °C 56.4 °F /  13.6 °C 30.12in /  1019.9hPa SSW 2mph /  3.2km/h 6mph /  9.7km/h 56.4% 0.00in /  0mm 949 W/m2
14:14 72.9 °F /  22.7 °C 56.3 °F /  13.5 °C 30.12in /  1019.9hPa SSW 3.7mph /  6km/h 7mph /  11.3km/h 56.1% 0.00in /  0mm 956 W/m2
14:19 72.1 °F /  22.3 °C 56.3 °F /  13.5 °C 30.12in /  1019.9hPa SW 2.1mph /  3.4km/h 5mph /  8km/h 57.8% 0.00in /  0mm 895 W/m2
14:24 72.4 °F /  22.4 °C 56 °F /  13.3 °C 30.11in /  1019.5hPa SW 3.8mph /  6.1km/h 8mph /  12.9km/h 56.4% 0.00in /  0mm 907 W/m2
14:29 71.7 °F /  22.1 °C 55.5 °F /  13.1 °C 30.11in /  1019.5hPa South 3.3mph /  5.3km/h 8mph /  12.9km/h 56.7% 0.00in /  0mm 316 W/m2
14:34 71.9 °F /  22.2 °C 55.7 °F /  13.2 °C 30.11in /  1019.5hPa SSE 1.2mph /  1.9km/h 8mph /  12.9km/h 56.7% 0.00in /  0mm 227 W/m2
14:39 72.3 °F /  22.4 °C 55.8 °F /  13.2 °C 30.11in /  1019.5hPa SSW 2mph /  3.2km/h 8mph /  12.9km/h 56% 0.00in /  0mm 287 W/m2
14:44 72.2 °F /  22.3 °C 56.3 °F /  13.5 °C 30.11in /  1019.5hPa WNW 4.1mph /  6.6km/h 8mph /  12.9km/h 57.3% 0.00in /  0mm 925 W/m2
14:49 73.1 °F /  22.8 °C 56.7 °F /  13.7 °C 30.11in /  1019.5hPa WNW 4.4mph /  7.1km/h 8mph /  12.9km/h 56.6% 0.00in /  0mm 905 W/m2
14:54 72.9 °F /  22.7 °C 56.2 °F /  13.4 °C 30.11in /  1019.5hPa WNW 3.5mph /  5.6km/h 7mph /  11.3km/h 55.9% 0.00in /  0mm 652 W/m2
14:59 72.6 °F /  22.6 °C 56.1 °F /  13.4 °C 30.11in /  1019.5hPa WNW 0.8mph /  1.3km/h 6mph /  9.7km/h 56.1% 0.00in /  0mm 821 W/m2
15:04 72.8 °F /  22.7 °C 56.2 °F /  13.4 °C 30.11in /  1019.5hPa West 2.5mph /  4km/h 6mph /  9.7km/h 56% 0.00in /  0mm 264 W/m2
15:09 72 °F /  22.2 °C 55.9 °F /  13.3 °C 30.11in /  1019.5hPa West 0.6mph /  1km/h 6mph /  9.7km/h 56.8% 0.00in /  0mm 229 W/m2
15:14 72 °F /  22.2 °C 56.1 °F /  13.4 °C 30.11in /  1019.5hPa West 1.4mph /  2.3km/h 5mph /  8km/h 57.4% 0.00in /  0mm 239 W/m2
15:19 72.1 °F /  22.3 °C 56.5 °F /  13.6 °C 30.10in /  1019.2hPa West 1.4mph /  2.3km/h 5mph /  8km/h 58% 0.00in /  0mm 281 W/m2
15:24 72.1 °F /  22.3 °C 56.5 °F /  13.6 °C 30.10in /  1019.2hPa West 2.3mph /  3.7km/h 6mph /  9.7km/h 58% 0.00in /  0mm 812 W/m2
15:29 73 °F /  22.8 °C 56.7 °F /  13.7 °C 30.10in /  1019.2hPa West 3.8mph /  6.1km/h 8mph /  12.9km/h 56.5% 0.00in /  0mm 846 W/m2
15:34 73.7 °F /  23.2 °C 56.7 °F /  13.7 °C 30.10in /  1019.2hPa WSW 3mph /  4.8km/h 8mph /  12.9km/h 55.5% 0.00in /  0mm 826 W/m2
15:39 73.8 °F /  23.2 °C 56 °F /  13.3 °C 30.11in /  1019.5hPa WSW 4.6mph /  7.4km/h 10mph /  16.1km/h 53.6% 0.00in /  0mm 789 W/m2
15:44 73.1 °F /  22.8 °C 56.4 °F /  13.6 °C 30.10in /  1019.2hPa SW 5.7mph /  9.2km/h 11mph /  17.7km/h 55.6% 0.00in /  0mm 786 W/m2
15:49 72.9 °F /  22.7 °C 56.5 °F /  13.6 °C 30.10in /  1019.2hPa SSW 3.1mph /  5km/h 10mph /  16.1km/h 56.2% 0.00in /  0mm 761 W/m2
15:54 73.7 °F /  23.2 °C 56.8 °F /  13.8 °C 30.10in /  1019.2hPa WSW 4.2mph /  6.8km/h 10mph /  16.1km/h 55.5% 0.00in /  0mm 738 W/m2
15:59 73.9 °F /  23.3 °C 57.2 °F /  14 °C 30.10in /  1019.2hPa West 5.5mph /  8.9km/h 11mph /  17.7km/h 56% 0.00in /  0mm 788 W/m2
16:04 73.9 °F /  23.3 °C 57 °F /  13.9 °C 30.10in /  1019.2hPa WSW 6.2mph /  10km/h 11mph /  17.7km/h 55.7% 0.00in /  0mm 791 W/m2
16:09 73.2 °F /  22.9 °C 56.6 °F /  13.7 °C 30.10in /  1019.2hPa West 5mph /  8km/h 10mph /  16.1km/h 56% 0.00in /  0mm 264 W/m2
16:14 72.3 °F /  22.4 °C 56.5 °F /  13.6 °C 30.10in /  1019.2hPa SW 4.3mph /  6.9km/h 10mph /  16.1km/h 57.4% 0.00in /  0mm 241 W/m2
16:19 72.4 °F /  22.4 °C 56.6 °F /  13.7 °C 30.10in /  1019.2hPa West 4.6mph /  7.4km/h 10mph /  16.1km/h 57.6% 0.00in /  0mm 206 W/m2
16:24 72 °F /  22.2 °C 56.3 °F /  13.5 °C 30.10in /  1019.2hPa West 3.6mph /  5.8km/h 9mph /  14.5km/h 57.7% 0.00in /  0mm 186 W/m2
16:29 71.7 °F /  22.1 °C 56.1 °F /  13.4 °C 30.10in /  1019.2hPa WSW 5.4mph /  8.7km/h 11mph /  17.7km/h 58% 0.00in /  0mm 132 W/m2
16:34 71.3 °F /  21.8 °C 55.9 °F /  13.3 °C 30.10in /  1019.2hPa West 4.5mph /  7.2km/h 9mph /  14.5km/h 58% 0.00in /  0mm 105 W/m2
16:39 71 °F /  21.7 °C 55.8 °F /  13.2 °C 30.10in /  1019.2hPa WNW 4.9mph /  7.9km/h 8mph /  12.9km/h 59% 0.00in /  0mm 109 W/m2
16:44 70.7 °F /  21.5 °C 55.8 °F /  13.2 °C 30.10in /  1019.2hPa WSW 3.6mph /  5.8km/h 8mph /  12.9km/h 59.4% 0.00in /  0mm 120 W/m2
16:49 71 °F /  21.7 °C 55.9 °F /  13.3 °C 30.10in /  1019.2hPa WSW 3.6mph /  5.8km/h 8mph /  12.9km/h 59% 0.00in /  0mm 123 W/m2
16:54 71.1 °F /  21.7 °C 56.3 °F /  13.5 °C 30.10in /  1019.2hPa WNW 2.2mph /  3.5km/h 8mph /  12.9km/h 59.7% 0.00in /  0mm 125 W/m2
16:59 70.8 °F /  21.6 °C 57.8 °F /  14.3 °C 30.10in /  1019.2hPa WNW 3.2mph /  5.1km/h 7mph /  11.3km/h 63.6% 0.00in /  0mm 134 W/m2
17:04 70.4 °F /  21.3 °C 58.1 °F /  14.5 °C 30.10in /  1019.2hPa WNW 1.1mph /  1.8km/h 5mph /  8km/h 65% 0.00in /  0mm 137 W/m2
17:09 70.6 °F /  21.4 °C 57.9 °F /  14.4 °C 30.10in /  1019.2hPa WNW 0.6mph /  1km/h 3mph /  4.8km/h 64.3% 0.00in /  0mm 121 W/m2
17:14 70.6 °F /  21.4 °C 57.8 °F /  14.3 °C 30.10in /  1019.2hPa WNW 3mph /  4.8km/h 7mph /  11.3km/h 64% 0.00in /  0mm 111 W/m2
17:19 70.3 °F /  21.3 °C 57.6 °F /  14.2 °C 30.10in /  1019.2hPa NNW 3mph /  4.8km/h 7mph /  11.3km/h 64.2% 0.00in /  0mm 107 W/m2
17:24 70.3 °F /  21.3 °C 58 °F /  14.4 °C 30.10in /  1019.2hPa NW 1.7mph /  2.7km/h 4mph /  6.4km/h 65% 0.00in /  0mm 98 W/m2
17:29 70.3 °F /  21.3 °C 58 °F /  14.4 °C 30.10in /  1019.2hPa NW 2.6mph /  4.2km/h 5mph /  8km/h 64.9% 0.00in /  0mm 83 W/m2
17:34 70.2 °F /  21.2 °C 57.8 °F /  14.3 °C 30.10in /  1019.2hPa NW 2.2mph /  3.5km/h 5mph /  8km/h 64.8% 0.00in /  0mm 76 W/m2
17:39 70 °F /  21.1 °C 57.9 °F /  14.4 °C 30.10in /  1019.2hPa NNW 1.3mph /  2.1km/h 4mph /  6.4km/h 65.4% 0.00in /  0mm 76 W/m2
17:44 69.9 °F /  21.1 °C 57.9 °F /  14.4 °C 30.10in /  1019.2hPa NNW 0.2mph /  0.3km/h 2mph /  3.2km/h 65.8% 0.00in /  0mm 88 W/m2
17:49 70.2 °F /  21.2 °C 57.7 °F /  14.3 °C 30.09in /  1018.8hPa NNW 1.2mph /  1.9km/h 3mph /  4.8km/h 64.7% 0.00in /  0mm 86 W/m2
17:54 70.2 °F /  21.2 °C 57.8 °F /  14.3 °C 30.09in /  1018.8hPa NNW 1.5mph /  2.4km/h 4mph /  6.4km/h 64.9% 0.00in /  0mm 79 W/m2
17:59 69.9 °F /  21.1 °C 57.9 °F /  14.4 °C 30.09in /  1018.8hPa NNW 0.9mph /  1.4km/h 4mph /  6.4km/h 65.8% 0.00in /  0mm 77 W/m2
18:04 69.9 °F /  21.1 °C 57.9 °F /  14.4 °C 30.09in /  1018.8hPa NNW 1.3mph /  2.1km/h 4mph /  6.4km/h 65.9% 0.00in /  0mm 81 W/m2
18:09 69.9 °F /  21.1 °C 57.8 °F /  14.3 °C 30.09in /  1018.8hPa NNW 0.5mph /  0.8km/h 4mph /  6.4km/h 65.6% 0.00in /  0mm 77 W/m2
18:14 70.2 °F /  21.2 °C 58.1 °F /  14.5 °C 30.10in /  1019.2hPa NNW 0.3mph /  0.5km/h 2mph /  3.2km/h 65.5% 0.00in /  0mm 49 W/m2
18:19 70.2 °F /  21.2 °C 58.1 °F /  14.5 °C 30.10in /  1019.2hPa NNW 1.2mph /  1.9km/h 3mph /  4.8km/h 65.5% 0.00in /  0mm 37 W/m2
18:24 70.1 °F /  21.2 °C 58.2 °F /  14.6 °C 30.10in /  1019.2hPa NNW 1mph /  1.6km/h 3mph /  4.8km/h 65.9% 0.00in /  0mm 33 W/m2
18:29 69.8 °F /  21 °C 57.7 °F /  14.3 °C 30.10in /  1019.2hPa NNW 0.6mph /  1km/h 3mph /  4.8km/h 65.3% 0.00in /  0mm 30 W/m2
18:34 69.8 °F /  21 °C 57.9 °F /  14.4 °C 30.10in /  1019.2hPa NNW 1.3mph /  2.1km/h 4mph /  6.4km/h 66% 0.00in /  0mm 30 W/m2
18:39 70.1 °F /  21.2 °C 58.2 °F /  14.6 °C 30.10in /  1019.2hPa NNW 0.3mph /  0.5km/h 4mph /  6.4km/h 66% 0.00in /  0mm 25 W/m2
18:44 70.3 °F /  21.3 °C 58.4 °F /  14.7 °C 30.10in /  1019.2hPa NNW 0.1mph /  0.2km/h 2mph /  3.2km/h 66% 0.00in /  0mm 21 W/m2
18:49 70.3 °F /  21.3 °C 58.5 °F /  14.7 °C 30.10in /  1019.2hPa NNW 0.7mph /  1.1km/h 3mph /  4.8km/h 66% 0.00in /  0mm 25 W/m2
18:54 70.3 °F /  21.3 °C 58.4 °F /  14.7 °C 30.10in /  1019.2hPa NNW 0.8mph /  1.3km/h 3mph /  4.8km/h 66% 0.00in /  0mm 26 W/m2
18:59 70.2 °F /  21.2 °C 58.3 °F /  14.6 °C 30.10in /  1019.2hPa NNW 2.1mph /  3.4km/h 4mph /  6.4km/h 66% 0.00in /  0mm 32 W/m2
19:04 70.2 °F /  21.2 °C 57.9 °F /  14.4 °C 30.10in /  1019.2hPa NNW 0.7mph /  1.1km/h 4mph /  6.4km/h 65% 0.00in /  0mm 33 W/m2
19:09 70.2 °F /  21.2 °C 58.1 °F /  14.5 °C 30.10in /  1019.2hPa NNW 0.1mph /  0.2km/h 2mph /  3.2km/h 65.2% 0.00in /  0mm 42 W/m2
19:14 70.3 °F /  21.3 °C 58.1 °F /  14.5 °C 30.10in /  1019.2hPa NNW 0.2mph /  0.3km/h 2mph /  3.2km/h 65% 0.00in /  0mm 67 W/m2
19:19 70.1 °F /  21.2 °C 58 °F /  14.4 °C 30.10in /  1019.2hPa NNW 2.2mph /  3.5km/h 4mph /  6.4km/h 65.6% 0.00in /  0mm 98 W/m2
19:24 69.8 °F /  21 °C 57.9 °F /  14.4 °C 30.10in /  1019.2hPa NNW 0.9mph /  1.4km/h 4mph /  6.4km/h 66% 0.00in /  0mm 118 W/m2
19:29 70.1 °F /  21.2 °C 58.2 °F /  14.6 °C 30.09in /  1018.8hPa NNW 1.2mph /  1.9km/h 5mph /  8km/h 66% 0.00in /  0mm 153 W/m2
19:34 70.2 °F /  21.2 °C 58.3 °F /  14.6 °C 30.10in /  1019.2hPa NNW 0.5mph /  0.8km/h 3mph /  4.8km/h 65.8% 0.00in /  0mm 176 W/m2
19:39 70.4 °F /  21.3 °C 57.9 °F /  14.4 °C 30.10in /  1019.2hPa WNW 1.4mph /  2.3km/h 6mph /  9.7km/h 64.5% 0.00in /  0mm 181 W/m2
19:44 70.2 °F /  21.2 °C 55.8 °F /  13.2 °C 30.10in /  1019.2hPa WSW 7.6mph /  12.2km/h 12mph /  19.3km/h 60.2% 0.00in /  0mm 221 W/m2
19:49 69.4 °F /  20.8 °C 54 °F /  12.2 °C 30.10in /  1019.2hPa WSW 9.5mph /  15.3km/h 13mph /  20.9km/h 58% 0.00in /  0mm 125 W/m2
19:54 68.9 °F /  20.5 °C 54 °F /  12.2 °C 30.10in /  1019.2hPa WSW 6mph /  9.7km/h 13mph /  20.9km/h 58.9% 0.00in /  0mm 178 W/m2
19:59 68.8 °F /  20.4 °C 53.9 °F /  12.2 °C 30.11in /  1019.5hPa WSW 6mph /  9.7km/h 11mph /  17.7km/h 59% 0.00in /  0mm 144 W/m2
20:04 68.5 °F /  20.3 °C 53.6 °F /  12 °C 30.11in /  1019.5hPa WSW 4.5mph /  7.2km/h 11mph /  17.7km/h 58.9% 0.00in /  0mm 97 W/m2
20:09 68.4 °F /  20.2 °C 53.6 °F /  12 °C 30.11in /  1019.5hPa WSW 2.3mph /  3.7km/h 8mph /  12.9km/h 59.3% 0.00in /  0mm 72 W/m2
20:14 68.3 °F /  20.2 °C 53.8 °F /  12.1 °C 30.11in /  1019.5hPa SW 3.6mph /  5.8km/h 8mph /  12.9km/h 59.9% 0.00in /  0mm 58 W/m2
20:19 68 °F /  20 °C 53.6 °F /  12 °C 30.11in /  1019.5hPa SW 2mph /  3.2km/h 6mph /  9.7km/h 60% 0.00in /  0mm 46 W/m2
20:24 67.9 °F /  19.9 °C 53.5 °F /  11.9 °C 30.11in /  1019.5hPa SW 3.1mph /  5km/h 8mph /  12.9km/h 60% 0.00in /  0mm 62 W/m2
20:29 67.7 °F /  19.8 °C 53.3 °F /  11.8 °C 30.11in /  1019.5hPa SSW 1.9mph /  3.1km/h 7mph /  11.3km/h 60% 0.00in /  0mm 54 W/m2
20:34 67.6 °F /  19.8 °C 53.7 °F /  12.1 °C 30.11in /  1019.5hPa SSW 1.9mph /  3.1km/h 4mph /  6.4km/h 60.9% 0.00in /  0mm 39 W/m2
20:39 67.5 °F /  19.7 °C 53.6 °F /  12 °C 30.11in /  1019.5hPa SSW 1.6mph /  2.6km/h 4mph /  6.4km/h 61% 0.00in /  0mm 30 W/m2
20:44 67.2 °F /  19.6 °C 53.3 °F /  11.8 °C 30.11in /  1019.5hPa SSW 0.7mph /  1.1km/h 4mph /  6.4km/h 61.1% 0.00in /  0mm 25 W/m2
20:49 67 °F /  19.4 °C 53.5 °F /  11.9 °C 30.11in /  1019.5hPa SSW 0.4mph /  0.6km/h 3mph /  4.8km/h 62% 0.00in /  0mm 21 W/m2
20:54 66.9 °F /  19.4 °C 53.5 °F /  11.9 °C 30.11in /  1019.5hPa SSW 0.4mph /  0.6km/h 2mph /  3.2km/h 62.3% 0.00in /  0mm 18 W/m2
20:59 66.8 °F /  19.3 °C 53.3 °F /  11.8 °C 30.11in /  1019.5hPa SSW 1.4mph /  2.3km/h 5mph /  8km/h 62.1% 0.00in /  0mm 14 W/m2
21:04 66.6 °F /  19.2 °C 53.2 °F /  11.8 °C 30.11in /  1019.5hPa SSW 1.2mph /  1.9km/h 6mph /  9.7km/h 62.2% 0.00in /  0mm 11 W/m2
21:09 66.2 °F /  19 °C 52.8 °F /  11.6 °C 30.12in /  1019.9hPa SW 1.8mph /  2.9km/h 6mph /  9.7km/h 62% 0.00in /  0mm 9 W/m2
21:14 65.8 °F /  18.8 °C 52.5 °F /  11.4 °C 30.12in /  1019.9hPa WSW 1.3mph /  2.1km/h 5mph /  8km/h 62% 0.00in /  0mm 7 W/m2
21:19 65.6 °F /  18.7 °C 52.3 °F /  11.3 °C 30.12in /  1019.9hPa West 1.1mph /  1.8km/h 5mph /  8km/h 62.1% 0.00in /  0mm 5 W/m2
21:24 65.2 °F /  18.4 °C 52.3 °F /  11.3 °C 30.12in /  1019.9hPa WSW 0.7mph /  1.1km/h 3mph /  4.8km/h 63% 0.00in /  0mm 0 W/m2
21:29 65 °F /  18.3 °C 52.1 °F /  11.2 °C 30.12in /  1019.9hPa WSW 0.5mph /  0.8km/h 3mph /  4.8km/h 63% 0.00in /  0mm 0 W/m2
21:34 64.8 °F /  18.2 °C 51.8 °F /  11 °C 30.12in /  1019.9hPa WSW 1.4mph /  2.3km/h 4mph /  6.4km/h 63% 0.00in /  0mm 0 W/m2
21:39 64.5 °F /  18.1 °C 51.8 °F /  11 °C 30.13in /  1020.2hPa WSW 1.7mph /  2.7km/h 5mph /  8km/h 63.4% 0.00in /  0mm 0 W/m2
21:44 64.2 °F /  17.9 °C 51.7 °F /  10.9 °C 30.13in /  1020.2hPa WSW 2.4mph /  3.9km/h 5mph /  8km/h 63.7% 0.00in /  0mm 0 W/m2
21:49 64 °F /  17.8 °C 51.5 °F /  10.8 °C 30.13in /  1020.2hPa WSW 0.5mph /  0.8km/h 5mph /  8km/h 64% 0.00in /  0mm 0 W/m2
21:54 63.8 °F /  17.7 °C 51.4 °F /  10.8 °C 30.13in /  1020.2hPa WSW 1.1mph /  1.8km/h 5mph /  8km/h 64% 0.00in /  0mm 0 W/m2
21:59 63.8 °F /  17.7 °C 51.3 °F /  10.7 °C 30.14in /  1020.5hPa Calm   1mph /  1.6km/h 64% 0.00in /  0mm 0 W/m2
22:04 63.7 °F /  17.6 °C 51.4 °F /  10.8 °C 30.14in /  1020.5hPa WSW 0.1mph /  0.2km/h 5mph /  8km/h 64.4% 0.00in /  0mm 0 W/m2
22:09 63.5 °F /  17.5 °C 51.7 °F /  10.9 °C 30.14in /  1020.5hPa Calm   1mph /  1.6km/h 65.6% 0.00in /  0mm 0 W/m2
22:14 63.1 °F /  17.3 °C 51.2 °F /  10.7 °C 30.14in /  1020.5hPa NW 2.3mph /  3.7km/h 6mph /  9.7km/h 65.1% 0.00in /  0mm 0 W/m2
22:19 62.9 °F /  17.2 °C 51 °F /  10.6 °C 30.14in /  1020.5hPa NNW 0.6mph /  1km/h 3mph /  4.8km/h 65% 0.00in /  0mm 0 W/m2
22:24 62.7 °F /  17.1 °C 50.8 °F /  10.4 °C 30.14in /  1020.5hPa WSW 1.3mph /  2.1km/h 4mph /  6.4km/h 65% 0.00in /  0mm 0 W/m2
22:29 62.6 °F /  17 °C 50.7 °F /  10.4 °C 30.14in /  1020.5hPa SW 0.2mph /  0.3km/h 3mph /  4.8km/h 65% 0.00in /  0mm 0 W/m2
22:34 62.4 °F /  16.9 °C 50.8 °F /  10.4 °C 30.14in /  1020.5hPa Calm     65.8% 0.00in /  0mm 0 W/m2
22:39 62.4 °F /  16.9 °C 51.1 °F /  10.6 °C 30.14in /  1020.5hPa Calm     66.6% 0.00in /  0mm 0 W/m2
22:44 62.3 °F /  16.8 °C 50.9 °F /  10.5 °C 30.14in /  1020.5hPa Calm     66.4% 0.00in /  0mm 0 W/m2
22:49 62 °F /  16.7 °C 49.9 °F /  9.9 °C 30.14in /  1020.5hPa SW 2.3mph /  3.7km/h 5mph /  8km/h 64.4% 0.00in /  0mm 0 W/m2
22:54 61.7 °F /  16.5 °C 49.5 °F /  9.7 °C 30.14in /  1020.5hPa SW 1.9mph /  3.1km/h 6mph /  9.7km/h 64% 0.00in /  0mm 0 W/m2
22:59 61.5 °F /  16.4 °C 49.3 °F /  9.6 °C 30.14in /  1020.5hPa SW 2mph /  3.2km/h 6mph /  9.7km/h 64% 0.00in /  0mm 0 W/m2
23:04 61.4 °F /  16.3 °C 49.2 °F /  9.6 °C 30.14in /  1020.5hPa WSW 1.4mph /  2.3km/h 4mph /  6.4km/h 64% 0.00in /  0mm 0 W/m2
23:09 61.2 °F /  16.2 °C 49 °F /  9.4 °C 30.14in /  1020.5hPa WSW 1.6mph /  2.6km/h 4mph /  6.4km/h 64% 0.00in /  0mm 0 W/m2
23:14 61.1 °F /  16.2 °C 48.8 °F /  9.3 °C 30.14in /  1020.5hPa WSW 1.8mph /  2.9km/h 4mph /  6.4km/h 64% 0.00in /  0mm 0 W/m2
23:19 60.8 °F /  16 °C 48.8 °F /  9.3 °C 30.14in /  1020.5hPa WSW 0.6mph /  1km/h 4mph /  6.4km/h 64.8% 0.00in /  0mm 0 W/m2
23:24 60.8 °F /  16 °C 48.9 °F /  9.4 °C 30.14in /  1020.5hPa WSW 0.8mph /  1.3km/h 4mph /  6.4km/h 65% 0.00in /  0mm 0 W/m2
23:29 60.6 °F /  15.9 °C 48.7 °F /  9.3 °C 30.14in /  1020.5hPa WSW 1.3mph /  2.1km/h 4mph /  6.4km/h 65% 0.00in /  0mm 0 W/m2
23:34 60.5 °F /  15.8 °C 48.6 °F /  9.2 °C 30.14in /  1020.5hPa WNW 1.5mph /  2.4km/h 4mph /  6.4km/h 65% 0.00in /  0mm 0 W/m2
23:39 60.3 °F /  15.7 °C 48.4 °F /  9.1 °C 30.14in /  1020.5hPa NNW 0.1mph /  0.2km/h 4mph /  6.4km/h 65% 0.00in /  0mm 0 W/m2
23:44 60.3 °F /  15.7 °C 48.4 °F /  9.1 °C 30.14in /  1020.5hPa Calm     65% 0.00in /  0mm 0 W/m2
23:49 60.3 °F /  15.7 °C 48.3 °F /  9.1 °C 30.14in /  1020.5hPa Calm     64.7% 0.00in /  0mm 0 W/m2
23:54 60.3 °F /  15.7 °C 48.2 °F /  9 °C 30.14in /  1020.5hPa Calm     64.5% 0.00in /  0mm 0 W/m2
23:59 60.1 °F /  15.6 °C 47.9 °F /  8.8 °C 30.14in /  1020.5hPa Calm     64% 0.00in /  0mm 0 W/m2
Bath Spa Weather
Compliments of Weather Underground - 2 mb